• Join FlightAware (Why Join?)
  • Login
  • US Flag 
11:57PM EST


 

Airport Tracker/Info


-or-


 

Live Flight TrackerFlight Track Log ✈ N789EX ✈ 17-Oct-2013 ✈ KBFI - KBFI

Flight Track Log - Related Links

Times and Time Zones

All times are in EDT time to prevent confusion due to time zone crossing. See the N789EX flight status page for this flight to view local times or setup timezone preferences in your user account.

Time Position Orientation Groundspeed Altitude Reporting Facility
EDT Latitude Longitude Course Direction KTS MPH feet Rate Location/Type
02:01PM 47.4660 -122.2480 149° Southeast 245 282 3,100  Level FlightAware
02:01PM 47.4470 -122.2290 146° Southeast 251 289 4,100 3,176 Climbing FlightAware
02:02PM 47.4380 -122.2080 122° Southeast 250 288 4,900 3,097 Climbing FlightAware
02:02PM 47.4350 -122.1810 99° East 254 292 5,700 3,000 Climbing FlightAware
02:02PM 47.4340 -122.1330 92° East 261 300 7,100 2,533 Climbing FlightAware
02:03PM 47.4330 -122.1020 93° East 266 306 7,600 1,800 Climbing FlightAware
02:03PM 47.4330 -122.0610 90° East 265 305 8,300 1,579 Climbing FlightAware
02:03PM 47.4330 -122.0320 90° East 266 306 8,600 1,463 Climbing FlightAware
02:04PM 47.4320 -121.9860 92° East 269 310 9,300 1,800 Climbing FlightAware
02:04PM 47.4320 -121.9200 90° East 273 314 10,400 1,183 Climbing FlightAware
02:05PM 47.4310 -121.8520 91° East 278 320 10,700 909 Climbing FlightAware
02:05PM 47.4300 -121.7970 92° East 275 316 11,400 1,750 Climbing FlightAware
02:06PM 47.4300 -121.7190 90° East 279 321 12,800 2,108 Climbing FlightAware
02:07PM 47.4290 -121.6550 91° East 282 325 14,000 1,781 Climbing FlightAware
02:07PM 47.4280 -121.5960 91° East 288 331 14,700 618 Climbing FlightAware
02:08PM 47.4270 -121.5230 91° East 289 333 14,700  Level FlightAware
02:08PM 47.4260 -121.4480 91° East 288 331 14,700  Level FlightAware
02:09PM 47.4250 -121.3880 91° East 288 331 14,700  Level FlightAware
02:09PM 47.4230 -121.3110 92° East 287 330 14,700  Level FlightAware
02:10PM 47.4220 -121.2400 91° East 287 330 14,700  Level FlightAware
02:11PM 47.4210 -121.1690 91° East 287 330 14,700  Level FlightAware
02:11PM 47.4200 -121.1140 92° East 287 330 14,700 -86 Level FlightAware
02:12PM 47.4150 -121.0320 95° East 285 328 14,600  Descending FlightAware
02:12PM 47.4110 -120.9750 96° East 252 290 14,700 88 Climbing FlightAware
02:13PM 47.4070 -120.9190 96° East 214 246 14,700 -86 Level FlightAware
02:14PM 47.4040 -120.8720 95° East 197 227 14,600  Descending FlightAware
02:14PM 47.4030 -120.8260 92° East 197 227 14,700 343 Climbing FlightAware
02:15PM 47.4010 -120.7810 94° East 175 201 15,000 171 Climbing FlightAware
02:15PM 47.3990 -120.7420 94° East 167 192 14,900 -343 Descending FlightAware
02:16PM 47.3970 -120.7020 94° East 163 188 14,600 -500 Descending FlightAware
02:16PM 47.3950 -120.6610 94° East 163 188 14,300 -577 Descending FlightAware
02:17PM 47.3940 -120.6450 95° East 172 198 14,100 -857 Descending FlightAware
02:17PM 47.3890 -120.6310 118° Southeast 188 216 13,900 -1,200 Descending FlightAware
02:17PM 47.3830 -120.6240 142° Southeast 202 232 13,700 -1,333 Descending FlightAware
02:17PM 47.3740 -120.6210 167° South 212 244 13,500 -750 Descending FlightAware
02:18PM 47.3590 -120.6350 212° Southwest 203 234 13,300 -649 Descending FlightAware
02:18PM 47.3480 -120.6550 231° Southwest 221 254 13,100 -500 Descending FlightAware
02:18PM 47.3390 -120.6580 193° South 241 277 13,100 -207 Level FlightAware
02:18PM 47.3240 -120.6420 144° Southeast 227 261 13,000 -222 Descending FlightAware
02:18PM 47.3230 -120.6290 96° East 213 245 13,000 -273 Level FlightAware
02:19PM 47.3210 -120.5740 93° East 203 234 12,800 -696 Descending FlightAware
02:20PM 47.3210 -120.5330 90° East 190 219 12,200 -1,161 Descending FlightAware
02:20PM 47.3220 -120.4940 88° East 183 211 11,600 -987 Descending FlightAware
02:21PM 47.3270 -120.4370 83° East 189 217 10,900 -1,727 Descending FlightAware
02:21PM 47.3310 -120.4110 77° East 186 214 9,700 -2,850 Descending FlightAware
02:22PM 47.3350 -120.3840 78° East 179 206 9,000 -840 Descending FlightAware
02:22PM 47.3400 -120.3570 75° East 179 206 9,000  Level FlightAware
02:22PM 47.3440 -120.3310 77° East 179 206 9,000  Level FlightAware
02:23PM 47.3480 -120.3070 76° East 179 206 9,000 2,951 Level FlightAware
02:23PM 47.3530 -120.2730 78° East 114 131 12,000 3,211 Climbing FlightAware
02:24PM 47.3580 -120.2460 75° East 113 130 12,800 1,317 Climbing FlightAware
02:24PM 47.3580 -120.2400 90° East 124 143 12,900 750 Climbing FlightAware
02:25PM 47.3460 -120.2240 138° Southeast 175 201 13,200 955 Climbing FlightAware
02:25PM 47.3340 -120.2350 212° Southwest 167 192 13,600 346 Climbing FlightAware
02:25PM 47.3150 -120.2690 231° Southwest 205 236 13,500 -250 Descending FlightAware
02:26PM 47.3040 -120.2800 214° Southwest 210 242 13,400 -750 Descending FlightAware
02:26PM 47.2950 -120.2840 197° South 213 245 13,200 -947 Descending FlightAware
02:26PM 47.2840 -120.2860 187° South 216 249 13,100 -1,200 Descending FlightAware
02:26PM 47.2570 -120.2820 174° South 207 238 12,400 -1,692 Descending FlightAware
02:27PM 47.2480 -120.2750 152° Southeast 201 231 12,000 -2,211 Descending FlightAware
02:27PM 47.2410 -120.2670 142° Southeast 197 227 11,700 -2,250 Descending FlightAware
02:27PM 47.2340 -120.2510 123° Southeast 184 212 11,100 -2,276 Descending FlightAware
02:27PM 47.2310 -120.2360 106° East 174 200 10,600 -2,167 Descending FlightAware
02:28PM 47.2300 -120.2110 93° East 169 194 9,800 -980 Descending FlightAware
02:28PM 47.2290 -120.1850 93° East 169 194 9,800  Level FlightAware
02:29PM 47.2280 -120.1600 93° East 169 194 9,800  Level FlightAware
02:29PM 47.2280 -120.1460 90° East 169 194 9,800 2,426 Level FlightAware
02:29PM 47.2330 -120.1070 79° East 134 154 11,700 2,647 Climbing FlightAware
02:30PM 47.2340 -120.0790 87° East 113 130 12,800 1,333 Climbing FlightAware
02:30PM 47.2360 -120.0500 84° East 114 131 13,300 900 Climbing FlightAware
02:31PM 47.2370 -120.0470 64° Northeast 111 128 13,400 706 Climbing FlightAware
02:31PM 47.2410 -120.0430 34° Northeast 105 121 13,500 686 Climbing FlightAware
02:31PM 47.2460 -120.0580 296° West 146 168 13,800 1,000 Climbing FlightAware
02:31PM 47.2440 -120.0650 247° West 152 175 14,000 933 Climbing FlightAware
02:32PM 47.2310 -120.0980 240° Southwest 180 207 14,500 875 Climbing FlightAware
02:32PM 47.2220 -120.1110 224° Southwest 205 236 14,700 667 Climbing FlightAware
02:32PM 47.2160 -120.1130 193° South 214 246 14,700 -1,161 Level FlightAware
02:33PM 47.1960 -120.0960 150° Southeast 200 230 14,100 -1,286 Descending FlightAware
02:33PM 47.1740 -120.0690 140° Southeast 173 199 13,500 -1,164 Descending FlightAware
02:34PM 47.1550 -120.0450 139° Southeast 154 177 12,800 -1,478 Descending FlightAware
02:34PM 47.1380 -120.0200 135° Southeast 145 167 11,800 -1,437 Descending FlightAware
02:35PM 47.1190 -119.9880 131° Southeast 180 207 11,100 -590 Descending FlightAware
02:35PM 47.1060 -119.9640 129° Southeast 186 214 11,200 857 Climbing FlightAware
02:35PM 47.1040 -119.9510 103° East 175 201 11,600 2,634 Climbing FlightAware
02:36PM 47.1000 -119.9180 100° East 168 193 13,000 2,488 Climbing FlightAware
02:36PM 47.0950 -119.9070 124° Southeast 186 214 13,300 1,875 Climbing FlightAware
02:37PM 47.0710 -119.8730 136° Southeast 196 226 14,500 1,075 Climbing FlightAware
02:37PM 47.0510 -119.8450 136° Southeast 199 229 14,500 -609 Level FlightAware
02:38PM 47.0250 -119.8090 137° Southeast 191 220 13,800 -947 Descending FlightAware
02:39PM 47.0030 -119.7810 139° Southeast 158 182 13,300 -1,108 Descending FlightAware
02:39PM 46.9880 -119.7600 136° Southeast 145 167 12,600 -1,667 Descending FlightAware
02:39PM 46.9790 -119.7400 123° Southeast 152 175 11,800 -957 Descending FlightAware
02:40PM 46.9590 -119.7140 138° Southeast 150 173 11,500 -225 Descending FlightAware
02:41PM 46.9420 -119.6930 140° Southeast 150 173 11,500 179 Level FlightAware
02:41PM 46.9130 -119.6440 131° Southeast 215 247 11,700 1,875 Climbing FlightAware
02:42PM 46.8900 -119.6130 137° Southeast 199 229 13,500 2,384 Climbing FlightAware
02:42PM 46.8610 -119.5750 138° Southeast 216 249 14,600 486 Climbing FlightAware
02:43PM 46.8350 -119.5410 138° Southeast 211 243 14,100 -609 Descending FlightAware
02:44PM 46.8130 -119.5130 139° Southeast 169 194 13,900 -943 Descending FlightAware
02:44PM 46.7930 -119.4880 139° Southeast 159 183 13,000 -1,594 Descending FlightAware
02:45PM 46.7810 -119.4640 126° Southeast 159 183 12,200 -1,091 Descending FlightAware
02:46PM 46.7570 -119.4280 134° Southeast 164 189 11,600 -424 Descending FlightAware
02:46PM 46.7410 -119.4030 133° Southeast 164 189 11,600 545 Level FlightAware
02:46PM 46.7250 -119.3570 117° Southeast 242 278 12,100 2,357 Climbing FlightAware
02:47PM 46.7270 -119.3400 80° East 232 267 12,700 3,300 Climbing FlightAware
02:47PM 46.7320 -119.3260 62° Northeast 232 267 13,200 1,953 Climbing FlightAware
02:47PM 46.7480 -119.2820 62° Northeast 211 243 14,100 385 Climbing FlightAware
02:48PM 46.7670 -119.2310 61° Northeast 214 246 13,700 -293 Descending FlightAware
02:49PM 46.7820 -119.1930 60° Northeast 214 246 13,700  Level FlightAware
02:49PM 46.7970 -119.1540 61° Northeast 214 246 13,700 -184 Level FlightAware
02:50PM 46.8353 -119.1017 61° Northeast 211 243 13,400 488 Descending Seattle Center
02:51PM 46.8706 -119.0344 52° Northeast 213 245 14,700 738 Climbing Seattle Center
02:52PM 46.9047 -118.9606 56° Northeast 219 252 14,900  Climbing Seattle Center
02:53PM 46.9478 -118.8964 45° Northeast 220 253 14,700 -541 Descending Seattle Center
02:54PM 47.0078 -118.8431 31° Northeast 210 242 13,800 -829 Descending Seattle Center
02:55PM 47.0486 -118.8111 28° Northeast 172 198 13,000 -1,024 Descending Seattle Center
02:56PM 47.0944 -118.7817 24° Northeast 180 207 11,700 836 Descending Seattle Center
02:57PM 47.1497 -118.7486 22° Northeast 209 241 14,700 1,279 Climbing Seattle Center
02:58PM 47.2042 -118.7186 21° North 209 241 14,300 -339 Descending Seattle Center
03:00PM 47.2533 -118.6956 18° North 186 214 14,000 -823 Descending Seattle Center
03:01PM 47.2967 -118.6817 12° North 163 188 12,600 -1,279 Descending Seattle Center
03:02PM 47.3431 -118.6597 18° North 173 199 11,400 443 Descending Seattle Center
03:03PM 47.3875 -118.6944 332° Northwest 207 238 13,500 1,230 Climbing Seattle Center
03:04PM 47.4419 -118.7711 316° Northwest 221 254 13,900 -195 Climbing Seattle Center
03:05PM 47.4731 -118.8242 311° West 176 203 13,100 -976 Descending Seattle Center
03:06PM 47.5069 -118.8753 314° West 173 199 11,900 738 Descending Seattle Center
03:07PM 47.5492 -118.9408 314° West 216 249 14,600 1,279 Climbing Seattle Center
03:08PM 47.5839 -118.9986 312° West 190 219 14,500 -393 Descending Seattle Center
03:09PM 47.6128 -119.0469 312° West 160 184 13,800 -1,033 Descending Seattle Center
03:10PM 47.6331 -119.0858 308° West 123 142 12,400 -1,512 Descending Seattle Center
03:11PM 47.6533 -119.1258 307° West 122 140 10,700 -49 Descending Seattle Center
03:12PM 47.6756 -119.1856 299° West 179 206 12,300 1,820 Climbing Seattle Center
03:13PM 47.6692 -119.2664 263° West 175 201 14,400 492 Climbing Seattle Center
03:14PM 47.6617 -119.3381 261° West 164 189 13,300 -1,328 Descending Seattle Center
03:15PM 47.6528 -119.3894 256° West 133 153 11,700 -341 Descending Seattle Center
03:16PM 47.6450 -119.4542 260° West 157 181 12,600 1,512 Climbing Seattle Center
03:17PM 47.6389 -119.5228 262° West 168 193 14,800 443 Climbing Seattle Center
03:18PM 47.6281 -119.5989 258° West 174 200 13,500 -1,279 Descending Seattle Center
03:19PM 47.6200 -119.6542 258° West 140 161 12,200 -1,426 Descending Seattle Center
03:20PM 47.6119 -119.7036 256° West 128 147 10,600 -738 Descending Seattle Center
03:21PM 47.6008 -119.7639 255° West 151 174 10,700 1,171 Climbing Seattle Center
03:22PM 47.5867 -119.8478 256° West 192 221 13,000 2,098 Climbing Seattle Center
03:23PM 47.5725 -119.9425 258° West 230 265 15,000 934 Climbing Seattle Center
03:24PM 47.6167 -119.9617 344° North 223 257 14,900 344 Descending Seattle Center
03:25PM 47.6464 -119.8656 65° Northeast 236 272 15,700 492 Climbing Seattle Center
03:26PM 47.6561 -119.7664 82° East 243 280 15,900 98 Climbing Seattle Center
03:27PM 47.6536 -119.6664 92° East 244 281 15,900 49 Level Seattle Center
03:28PM 47.6275 -119.5694 112° Southeast 255 293 16,000 98 Climbing Seattle Center
03:29PM 47.5922 -119.4742 119° Southeast 264 304 16,100 49 Climbing Seattle Center
03:30PM 47.5547 -119.3725 119° Southeast 260 299 16,100 -295 Level Seattle Center
03:31PM 47.5239 -119.2789 116° Southeast 254 292 15,500 -1,180 Descending Seattle Center
03:32PM 47.5022 -119.2089 115° Southeast 218 251 13,700 -443 Descending Seattle Center
03:33PM 47.4767 -119.1111 111° Southeast 253 291 14,600 829 Climbing Seattle Center
03:34PM 47.4450 -119.0239 118° Southeast 242 278 15,400 585 Climbing Seattle Center
03:35PM 47.3792 -118.9556 145° Southeast 277 319 15,800 -393 Climbing Seattle Center
03:36PM 47.3167 -119.0106 211° Southwest 263 303 14,600 -1,475 Descending Seattle Center
03:37PM 47.2600 -119.0625 212° Southwest 233 268 12,800 -244 Descending Seattle Center
03:38PM 47.2253 -119.1356 235° Southwest 232 267 14,100 1,561 Climbing Seattle Center
03:39PM 47.2808 -119.1419 356° North 201 231 16,000 541 Climbing Seattle Center
03:40PM 47.3311 -119.1303 North 203 234 15,200 -1,574 Descending Seattle Center
03:41PM 47.3811 -119.1242 North 175 201 12,800 -927 Descending Seattle Center
03:42PM 47.4406 -119.1261 359° North 210 242 13,300 1,561 Climbing Seattle Center
03:43PM 47.4797 -119.1906 312° West 221 254 16,000 590 Climbing Seattle Center
03:44PM 47.4939 -119.2939 282° West 222 255 14,500 -1,512 Descending Seattle Center
03:45PM 47.5069 -119.3917 281° West 242 278 12,900 244 Descending Seattle Center
03:46PM 47.5203 -119.4936 281° West 253 291 15,000 590 Climbing Seattle Center
03:47PM 47.5381 -119.5903 285° West 247 284 14,100 -443 Descending Seattle Center
03:48PM 47.5519 -119.6886 282° West 230 265 14,100 780 Level Seattle Center
03:49PM 47.5622 -119.7731 280° West 214 246 15,700 390 Climbing Seattle Center
03:51PM 47.5667 -119.8611 274° West 238 274 14,900 -492 Descending Seattle Center
03:52PM 47.5233 -119.8531 173° South 272 313 14,700 -197 Descending Seattle Center
03:53PM 47.5508 -119.7642 65° Northeast 220 253 14,500 -1,220 Descending Seattle Center
03:54PM 47.5725 -119.6889 67° East 198 228 12,200 -829 Descending Seattle Center
03:55PM 47.5969 -119.5869 70° East 253 291 12,800 1,033 Climbing Seattle Center
03:56PM 47.6183 -119.5031 69° East 224 258 14,300 1,131 Climbing Seattle Center
03:57PM 47.6406 -119.4111 70° East 219 252 15,100 393 Climbing Seattle Center
03:58PM 47.6147 -119.3156 112° Southeast 253 291 15,100 195 Level Seattle Center
03:59PM 47.5547 -119.3283 188° South 270 311 15,500 488 Climbing Seattle Center
04:00PM 47.5736 -119.4247 286° West 252 290 16,100 28 Climbing Seattle Center
04:06PM 47.7060 -120.1340 286° West 297 342 15,700 -59 Descending FlightAware
04:06PM 47.7170 -120.2080 282° West 299 344 15,700  Level FlightAware
04:07PM 47.7260 -120.2710 282° West 298 343 15,700  Level FlightAware
04:08PM 47.7360 -120.3440 282° West 298 343 15,700  Level FlightAware
04:08PM 47.7460 -120.4150 282° West 298 343 15,700  Level FlightAware
04:09PM 47.7550 -120.4750 283° West 298 343 15,700  Level FlightAware
04:09PM 47.7660 -120.5550 282° West 301 346 15,700  Level FlightAware
04:10PM 47.7770 -120.6290 282° West 304 350 15,700  Level FlightAware
04:11PM 47.7870 -120.7030 281° West 304 350 15,700  Level FlightAware
04:11PM 47.7960 -120.7650 282° West 304 350 15,700 -261 Level FlightAware
04:12PM 47.8070 -120.8440 282° West 303 349 15,400 -771 Descending FlightAware
04:12PM 47.8150 -120.9090 280° West 299 344 14,800 -1,235 Descending FlightAware
04:13PM 47.8250 -120.9800 282° West 294 338 14,000 -1,268 Descending FlightAware
04:13PM 47.8350 -121.0520 282° West 294 338 13,300 -1,167 Descending FlightAware
04:14PM 47.8450 -121.1220 282° West 293 337 12,600 -1,164 Descending FlightAware
04:15PM 47.8530 -121.1830 281° West 293 337 12,000 -1,182 Descending FlightAware
04:15PM 47.8580 -121.2530 276° West 279 321 11,300 -1,068 Descending FlightAware
04:16PM 47.8630 -121.3250 276° West 274 315 10,700 -545 Descending FlightAware
04:16PM 47.8660 -121.3760 275° West 271 312 10,700  Level FlightAware
04:17PM 47.8700 -121.4440 275° West 271 312 10,700  Level FlightAware
04:17PM 47.8750 -121.5100 276° West 273 314 10,700  Level FlightAware
04:18PM 47.8780 -121.5700 274° West 273 314 10,700  Level FlightAware
04:19PM 47.8830 -121.6390 276° West 275 316 10,700 -730 Level FlightAware
04:19PM 47.8780 -121.7080 264° West 279 321 9,800 -1,440 Descending FlightAware
04:19PM 47.8690 -121.7270 235° Southwest 282 325 9,500 -1,846 Descending FlightAware
04:20PM 47.8550 -121.7460 222° Southwest 286 329 9,000 -1,571 Descending FlightAware
04:20PM 47.8290 -121.7820 223° Southwest 282 325 8,400 -1,250 Descending FlightAware
04:20PM 47.8100 -121.8080 223° Southwest 273 314 8,000 -1,350 Descending FlightAware
04:21PM 47.7920 -121.8350 225° Southwest 264 304 7,500 -1,714 Descending FlightAware
04:21PM 47.7880 -121.8480 245° Southwest 260 299 7,200 -1,875 Descending FlightAware
04:21PM 47.7860 -121.8630 259° West 258 297 7,000 -1,714 Descending FlightAware
04:21PM 47.7830 -121.8970 263° West 259 298 6,400 -2,000 Descending FlightAware
04:22PM 47.7810 -121.9270 264° West 261 300 5,800 -1,800 Descending FlightAware
04:22PM 47.7780 -121.9690 264° West 261 300 5,200 -1,826 Descending FlightAware
04:22PM 47.7760 -122.0070 266° West 255 293 4,400 -2,143 Descending FlightAware
04:23PM 47.7750 -122.0400 267° West 252 290 3,700 -1,833 Descending FlightAware
04:23PM 47.7740 -122.0710 267° West 247 284 3,300 -1,313 Descending FlightAware
04:23PM 47.7730 -122.0960 267° West 242 278 3,000 -1,059 Descending FlightAware
04:24PM 47.7720 -122.1260 267° West 234 269 2,700 -750 Descending FlightAware
04:24PM 47.7690 -122.1590 262° West 219 252 2,500 -714 Descending FlightAware
04:24PM 47.7620 -122.1870 250° West 214 246 2,200 -900 Descending FlightAware
04:25PM 47.7540 -122.2140 246° West 206 237 1,900 -409 Descending FlightAware
04:25PM 47.7440 -122.2450 244° Southwest 200 230 1,900  Level FlightAware
04:25PM 47.7370 -122.2680 246° West 186 214 1,900  Level FlightAware
04:26PM 47.7290 -122.2900 242° Southwest 182 209 1,900  Level FlightAware
04:26PM 47.7200 -122.3180 244° Southwest 182 209 1,900  Level FlightAware
04:26PM 47.7130 -122.3390 244° Southwest 184 212 1,900  Level FlightAware
04:27PM 47.7050 -122.3610 242° Southwest 185 213 1,900  Level FlightAware
04:27PM 47.6970 -122.3830 242° Southwest 185 213 1,900  Level FlightAware
04:27PM 47.6920 -122.3910 227° Southwest 189 217 1,900  Level FlightAware
04:27PM 47.6850 -122.3970 210° Southwest 192 221 1,900  Level FlightAware
04:27PM 47.6810 -122.3980 190° South 194 223 1,900  Level FlightAware
04:28PM 47.6740 -122.3990 185° South 196 226 1,900  Level FlightAware
04:28PM 47.6560 -122.3970 176° South 197 227 1,900  Level FlightAware
04:28PM 47.6410 -122.3950 175° South 197 227 1,900  Level FlightAware
04:28PM 47.6350 -122.3910 156° South 196 226 1,900 -643 Level FlightAware
04:29PM 47.6200 -122.3780 150° Southeast 185 213 1,600 -1,105 Descending FlightAware
04:29PM 47.6070 -122.3670 150° Southeast 168 193 1,200 -955 Descending FlightAware
04:29PM 47.5910 -122.3540 151° Southeast 149 171 900 -783 Descending FlightAware
04:30PM 47.5790 -122.3440 151° Southeast 144 166 600 -750 Descending FlightAware
04:30PM 47.5630 -122.3300 149° Southeast 145 167 300 -455 Descending FlightAware
04:31PM 47.5440 -122.3140 150° Southeast 144 166 100  Descending FlightAware
04:31PM 47.5303 -122.3022 150° Southeast 145 167 300 400 Climbing Seattle Center
04:33PM 47.5300 -122.3020 173° South  Level Estimated